Dati Storici

Data ora Umidita' aria (%) Temperatura aria (°C) Rad globale (W/m²) Gonioanemometro (°) Tacoanemometro (m/s) Pioggia (mm)
08-11-2012 04:10 86.4 % 4.89 1.239 331.854 0.49 0
08-11-2012 04:00 86.2 % 5.167 1.457 2.317 0.557 0
08-11-2012 03:50 85.8 % 5.258 1.266 42.268 0.426 0
08-11-2012 03:40 86.3 % 5.601 1.676 114.891 0.659 0
08-11-2012 03:30 86.4 % 5.52 1.305 326.118 0.764 0
08-11-2012 03:20 87 % 5.742 1.497 358.628 0.887 0
08-11-2012 03:10 86.5 % 5.363 1.343 332.9 0.485 0
08-11-2012 03:00 86.4 % 5.485 1.234 40.136 0.468 0
08-11-2012 02:50 86.3 % 5.555 1.311 57.112 0.63 0
08-11-2012 02:40 85.5 % 5.522 1.183 17.052 0.162 0
08-11-2012 02:30 84.6 % 5.717 1.234 57.185 0.313 0
08-11-2012 02:20 85 % 6.022 1.141 114.609 0.559 0
08-11-2012 02:10 85.9 % 6.226 1.282 29.132 0.506 0
08-11-2012 02:00 86.2 % 6.18 1.045 305.085 0.002 0
08-11-2012 01:50 86.1 % 6.239 0.736 146.765 0 0
08-11-2012 01:40 86.3 % 6.487 1.147 322.245 0.427 0
08-11-2012 01:30 86 % 6.661 1.057 50.979 0.329 0
08-11-2012 01:20 86.9 % 7.023 1.108 35.37 0.732 0
08-11-2012 01:10 88.3 % 7.418 1.48 53.153 0.521 0
08-11-2012 01:00 88.5 % 7.358 1.545 322.252 0.499 0

I dati sono presentati in modo automatico a scopo informativo. In seguito a verifica i dati possono subire modifiche o essere invalidati e non riportati negli archivi definitivi.